MHRO

Juan Manuel Galvez International Airport

Roatan Island, Honduras
TAF MHRO 201610Z 2018/2118 08018KT 9999 SCT022TCU TX31/2019Z TN26/2112Z TEMPO 2022/2104 6000 -RA SCT020CB BKN080 BECMG 2104/2106 9999 NSW SCT024
Issued Valid From Valid To
Apr-20 @ 16:10 UTC
(12 hours ago)
Apr-20 @ 18:00 UTC
(10 hours ago)
Apr-21 @ 18:00 UTC
(in 14 hours)
Apr-20 @ 18:00 to Apr-21 @ 04:00
TAF MHRO 201610Z 2018/2118 08018KT 9999 SCT022TCU TX31/2019Z TN26/2112Z
Wind Visibility Clouds
80° at 18 knots 10,000+ meters
  • Scattered at 2,200' AGL
Temporary Apr-20 @ 22:00 to Apr-21 @ 04:00
TEMPO 2022/2104 6000 -RA SCT020CB BKN080
Visibility Clouds Conditions
6,003 meters
  • Scattered at 2,000' AGL
  • Broken at 8,000' AGL
  • Light Rain
Becoming Apr-21 @ 04:00 to Apr-21 @ 18:00
BECMG 2104/2106 9999 NSW SCT024
Wind Visibility Clouds Conditions
80° at 18 knots 10,000+ meters
  • Scattered at 2,400' AGL
TAF MHRO 201610Z 2018/2118 08018KT 9999 SCT022TCU TX31/2019Z TN26/2112Z TEMPO 2022/2104 6000 -RA SCT020CB BKN080 BECMG 2104/2106 9999 NSW SCT024
Issued Apr-20 @ 16:10 UTC
(12 hours ago)
Valid From Apr-20 @ 18:00 UTC
(10 hours ago)
Valid To Apr-21 @ 18:00 UTC
(in 14 hours)
Apr-20 @ 18:00 - Apr-21 @ 04:00
Wind Visibility
80° at 18 knots 10,000+ meters
Clouds
  • Scattered at 2,200' AGL
Temporary Apr-20 @ 22:00 - Apr-21 @ 04:00
Clouds
  • Scattered at 2,000' AGL
  • Broken at 8,000' AGL
Conditions
  • Light Rain
Becoming Apr-21 @ 04:00 - Apr-21 @ 18:00
Wind Visibility
80° at 18 knots 10,000+ meters
Clouds
  • Scattered at 2,400' AGL
Conditions